Time;durP1;ratioP1;P1;durP2;ratioP2;P2;SDS_P1;SDS_P2;PMS_P1;PMS_P2;Temp;Humidity;BMP_temperature;BMP_pressure;BME280_temperature;BME280_humidity;BME280_pressure;Samples;Min_cycle;Max_cycle;Signal;HPM_P1;HPM_P2
2021/03/02 00:00:23;;;;;;;4.67;3.13;;;;;;;-0.05;100.00;101299.97;1784166;79;21633;-72
2021/03/02 00:02:51;;;;;;;2.87;2.50;;;;;;;-0.06;100.00;101300.41;1815181;79;20968;-73
2021/03/02 00:05:19;;;;;;;5.23;2.57;;;;;;;-0.06;100.00;101304.88;1815282;79;21434;-72
2021/03/02 00:07:47;;;;;;;3.77;2.30;;;;;;;-0.07;100.00;101304.03;1815274;79;21194;-72
2021/03/02 00:10:15;;;;;;;4.70;2.63;;;;;;;-0.09;100.00;101294.37;1815001;79;21067;-72
2021/03/02 00:12:42;;;;;;;3.50;2.73;;;;;;;-0.11;100.00;101297.11;1815294;79;21410;-73
2021/03/02 00:15:14;;;;;;;5.23;3.17;;;;;;;-0.11;100.00;101291.78;1784305;79;21545;-73
2021/03/02 00:17:49;;;;;;;3.50;2.63;;;;;;;-0.12;100.00;101296.73;1815176;78;20956;-73
2021/03/02 00:20:21;;;;;;;2.70;2.17;;;;;;;-0.12;100.00;101294.55;1815186;79;21812;-73
2021/03/02 00:23:14;;;;;;;2.23;2.00;;;;;;;-0.13;100.00;101291.00;1815207;79;21498;-73
2021/03/02 00:25:44;;;;;;;2.47;2.27;;;;;;;-0.11;100.00;101293.59;1763107;81;20988;-72
2021/03/02 00:28:12;;;;;;;4.53;2.20;;;;;;;-0.14;100.00;101289.30;1763011;81;21056;-72
2021/03/02 00:30:40;;;;;;;2.53;2.27;;;;;;;-0.14;100.00;101282.66;1763051;81;20944;-72
2021/03/02 00:33:08;;;;;;;6.67;3.17;;;;;;;-0.15;100.00;101278.25;1763101;81;21339;-72
2021/03/02 00:35:37;;;;;;;4.17;2.40;;;;;;;-0.14;100.00;101276.45;1763047;81;21031;-72
2021/03/02 00:38:05;;;;;;;4.17;2.77;;;;;;;-0.17;100.00;101274.81;1762954;81;21565;-72
2021/03/02 00:40:33;;;;;;;6.50;3.50;;;;;;;-0.17;100.00;101268.64;1763095;81;21016;-72
2021/03/02 00:43:01;;;;;;;4.57;2.83;;;;;;;-0.17;100.00;101265.98;1732836;82;21568;-72
2021/03/02 00:45:29;;;;;;;4.43;3.00;;;;;;;-0.22;100.00;101261.72;1732735;82;22668;-72
2021/03/02 00:47:57;;;;;;;3.07;2.20;;;;;;;-0.22;100.00;101255.08;1732630;80;21083;-72
2021/03/02 00:50:26;;;;;;;2.20;2.00;;;;;;;-0.23;100.00;101258.69;1732602;82;21068;-72
2021/03/02 00:52:54;;;;;;;1.70;1.60;;;;;;;-0.24;100.00;101256.95;1732729;82;21083;-72
2021/03/02 00:55:23;;;;;;;5.00;2.50;;;;;;;-0.25;100.00;101257.02;1732868;82;21632;-72
2021/03/02 00:57:52;;;;;;;1.40;1.30;;;;;;;-0.26;100.00;101256.16;1732704;82;21383;-72
2021/03/02 01:00:24;;;;;;;2.67;2.33;;;;;;;-0.27;100.00;101255.75;1732340;82;21059;-72
2021/03/02 01:02:53;;;;;;;4.67;2.77;;;;;;;-0.28;100.00;101247.88;1727346;80;21027;-72
2021/03/02 01:05:21;;;;;;;2.93;1.97;;;;;;;-0.30;100.00;101248.39;1782484;80;21582;-73
2021/03/02 01:07:49;;;;;;;1.53;1.37;;;;;;;-0.33;100.00;101245.42;1782486;80;20957;-72
2021/03/02 01:10:19;;;;;;;2.70;2.10;;;;;;;-0.35;100.00;101238.44;1777769;80;21460;-72
2021/03/02 01:12:50;;;;;;;2.20;1.50;;;;;;;-0.38;100.00;101235.47;1778054;80;21030;-73
2021/03/02 01:15:18;;;;;;;6.27;2.90;;;;;;;-0.43;100.00;101237.00;1782580;80;21450;-72
2021/03/02 01:17:46;;;;;;;2.50;1.90;;;;;;;-0.47;100.00;101233.25;1782517;80;21102;-73
2021/03/02 01:20:15;;;;;;;1.70;1.50;;;;;;;-0.52;100.00;101229.46;1782471;80;21063;-73
2021/03/02 01:22:43;;;;;;;1.57;1.47;;;;;;;-0.54;100.00;101231.81;1782498;80;21446;-73
2021/03/02 01:25:13;;;;;;;1.47;1.37;;;;;;;-0.59;100.00;101226.22;1782393;80;21600;-72
2021/03/02 01:27:41;;;;;;;2.83;2.30;;;;;;;-0.63;100.00;101222.47;1782476;79;21039;-73
2021/03/02 01:30:12;;;;;;;3.10;1.97;;;;;;;-0.68;100.00;101224.47;1782406;80;20921;-72
2021/03/02 01:32:40;;;;;;;4.07;2.80;;;;;;;-0.72;100.00;101233.04;1782560;80;20929;-72
2021/03/02 01:35:11;;;;;;;1.53;1.43;;;;;;;-0.75;100.00;101231.84;1810910;78;21368;-73
2021/03/02 01:37:39;;;;;;;2.33;2.03;;;;;;;-0.77;100.00;101221.76;1813557;78;20977;-72
2021/03/02 01:40:12;;;;;;;4.07;1.93;;;;;;;-0.81;100.00;101221.03;1834277;77;20941;-73
2021/03/02 01:42:41;;;;;;;4.08;2.33;;;;;;;-0.83;100.00;101216.27;1829627;78;20881;-74
2021/03/02 01:45:14;;;;;;;3.77;2.40;;;;;;;-0.86;100.00;101221.70;1814571;79;20972;-74
2021/03/02 01:47:43;;;;;;;3.77;2.23;;;;;;;-0.89;100.00;101220.98;1809719;78;21419;-72
2021/03/02 01:50:12;;;;;;;5.83;3.27;;;;;;;-0.94;100.00;101215.86;1794941;79;21130;-72
2021/03/02 01:52:40;;;;;;;7.83;4.30;;;;;;;-1.00;100.00;101215.67;1766677;80;20947;-74
2021/03/02 01:55:08;;;;;;;13.37;6.40;;;;;;;-1.05;100.00;101207.52;1792783;80;20977;-74
2021/03/02 01:57:36;;;;;;;8.43;4.00;;;;;;;-1.11;100.00;101209.14;1792685;80;20970;-73
2021/03/02 02:00:22;;;;;;;3.73;2.87;;;;;;;-1.15;100.00;101212.39;1792732;79;21355;-72
2021/03/02 02:03:04;;;;;;;5.03;3.30;;;;;;;-1.19;100.00;101211.67;1773530;80;20977;-73
2021/03/02 02:05:36;;;;;;;4.73;2.73;;;;;;;-1.24;100.00;101210.12;1774004;80;21008;-74
2021/03/02 02:08:06;;;;;;;4.63;2.67;;;;;;;-1.29;100.00;101206.80;1773663;80;21159;-74
2021/03/02 02:10:44;;;;;;;2.23;2.00;;;;;;;-1.36;100.00;101209.73;1773606;80;21021;-74
2021/03/02 02:13:30;;;;;;;1.80;1.40;;;;;;;-1.44;100.00;101211.84;1773657;80;21013;-72
2021/03/02 02:16:09;;;;;;;2.37;2.17;;;;;;;-1.49;100.00;101203.21;1845254;76;24994;-74
2021/03/02 02:18:37;;;;;;;1.70;1.55;;;;;;;-1.58;100.00;101201.81;1729250;81;21048;-73
2021/03/02 02:21:11;;;;;;;3.00;1.30;;;;;;;-1.62;100.00;101196.24;1718969;83;22279;-74
2021/03/02 02:24:07;;;;;;;5.20;2.70;;;;;;;-1.68;100.00;101196.52;1729275;83;21036;-73
2021/03/02 02:26:46;;;;;;;6.23;3.20;;;;;;;-1.73;100.00;101196.70;1718833;83;21005;-73
2021/03/02 02:29:18;;;;;;;4.73;2.73;;;;;;;-1.72;100.00;101192.25;1729196;83;20973;-72
2021/03/02 02:31:46;;;;;;;4.23;2.90;;;;;;;-1.72;100.00;101185.62;1723484;82;21005;-73
2021/03/02 02:34:16;;;;;;;10.30;4.03;;;;;;;-1.74;100.00;101198.94;1728166;83;21577;-73
2021/03/02 02:36:50;;;;;;;3.83;2.77;;;;;;;-1.75;100.00;101200.35;1727867;83;21576;-73
2021/03/02 02:39:18;;;;;;;3.67;2.43;;;;;;;-1.79;100.00;101199.62;1728907;83;21020;-73
2021/03/02 02:41:48;;;;;;;2.53;1.93;;;;;;;-1.83;100.00;101195.34;1718943;83;21656;-73
2021/03/02 02:44:17;;;;;;;8.27;3.30;;;;;;;-1.88;100.00;101195.99;1726491;82;21097;-73
2021/03/02 02:46:45;;;;;;;7.83;4.20;;;;;;;-1.94;100.00;101189.16;1700178;83;21673;-73
2021/03/02 02:49:13;;;;;;;9.07;4.30;;;;;;;-2.00;100.00;101194.73;1701850;83;21594;-73
2021/03/02 02:51:41;;;;;;;4.00;2.97;;;;;;;-2.01;100.00;101182.86;1717279;83;21037;-73
2021/03/02 02:54:09;;;;;;;4.67;3.13;;;;;;;-2.03;100.00;101191.34;1703642;83;20989;-73
2021/03/02 02:56:39;;;;;;;5.73;3.13;;;;;;;-2.07;100.00;101186.63;1717255;83;21068;-73
2021/03/02 02:59:23;;;;;;;4.47;3.43;;;;;;;-2.12;100.00;101181.50;1703559;83;21298;-73
2021/03/02 03:02:04;;;;;;;8.97;4.40;;;;;;;-2.16;100.00;101182.56;1717208;83;21017;-73
2021/03/02 03:04:39;;;;;;;8.03;4.13;;;;;;;-2.21;100.00;101175.25;1727707;83;20921;-73
2021/03/02 03:07:12;;;;;;;11.93;5.53;;;;;;;-2.26;100.00;101175.90;1717151;83;21048;-73
2021/03/02 03:09:43;;;;;;;4.23;2.57;;;;;;;-2.31;100.00;101168.59;1724934;83;21068;-73
2021/03/02 03:12:13;;;;;;;12.07;4.83;;;;;;;-2.34;100.00;101169.59;1717273;83;21390;-73
2021/03/02 03:14:48;;;;;;;7.50;4.77;;;;;;;-2.38;100.00;101173.27;1737794;80;20938;-73
2021/03/02 03:17:16;;;;;;;15.80;7.72;;;;;;;-2.40;100.00;101171.61;1720487;82;21013;-73
2021/03/02 03:19:45;;;;;;;11.60;5.47;;;;;;;-2.42;100.00;101163.72;1720003;83;20977;-73
2021/03/02 03:22:15;;;;;;;7.40;3.83;;;;;;;-2.38;100.00;101155.19;1719964;83;21005;-73
2021/03/02 03:24:44;;;;;;;7.43;4.13;;;;;;;-2.37;100.00;101159.11;1720077;83;22362;-73
2021/03/02 03:27:11;;;;;;;16.77;7.97;;;;;;;-2.36;100.00;101164.78;1719579;83;20965;-73
2021/03/02 03:29:39;;;;;;;9.90;5.73;;;;;;;-2.37;100.00;101159.58;1719563;83;21644;-73
2021/03/02 03:32:07;;;;;;;16.00;8.40;;;;;;;-2.37;100.00;101160.91;1695760;83;21077;-73
2021/03/02 03:34:35;;;;;;;17.13;7.87;;;;;;;-2.34;100.00;101164.29;1719552;83;20970;-73
2021/03/02 03:37:03;;;;;;;13.43;7.80;;;;;;;-2.31;100.00;101160.64;1719477;83;21590;-73
2021/03/02 03:39:31;;;;;;;9.50;5.77;;;;;;;-2.29;100.00;101156.14;1719576;83;21232;-73
2021/03/02 03:41:59;;;;;;;8.47;4.37;;;;;;;-2.25;100.00;101163.50;1719596;83;21072;-73
2021/03/02 03:44:27;;;;;;;9.87;4.63;;;;;;;-2.26;100.00;101164.45;1761048;81;21032;-74
2021/03/02 03:46:54;;;;;;;8.13;4.67;;;;;;;-2.30;100.00;101159.27;1728107;83;21024;-74
2021/03/02 03:49:22;;;;;;;7.33;3.47;;;;;;;-2.35;100.00;101165.20;1693749;83;21587;-73
2021/03/02 03:51:51;;;;;;;13.37;6.20;;;;;;;-2.39;100.00;101164.05;1681310;85;21179;-73
2021/03/02 03:54:19;;;;;;;8.87;4.13;;;;;;;-2.44;100.00;101157.62;1681305;85;21057;-74
2021/03/02 03:56:46;;;;;;;7.90;3.87;;;;;;;-2.46;100.00;101163.45;1681221;85;21034;-73
2021/03/02 03:59:14;;;;;;;6.67;3.90;;;;;;;-2.47;100.00;101163.50;1681216;85;21041;-73
2021/03/02 04:01:42;;;;;;;5.67;3.43;;;;;;;-2.51;100.00;101159.64;1681330;85;22396;-73
2021/03/02 04:04:10;;;;;;;8.63;3.47;;;;;;;-2.50;100.00;101164.47;1681230;85;21050;-73
2021/03/02 04:06:39;;;;;;;9.23;4.23;;;;;;;-2.48;100.00;101162.63;1681379;85;21057;-73
2021/03/02 04:09:07;;;;;;;3.53;2.63;;;;;;;-2.47;100.00;101159.06;1681301;85;21163;-73
2021/03/02 04:11:35;;;;;;;7.90;3.57;;;;;;;-2.46;100.00;101167.42;1681195;83;21093;-73
2021/03/02 04:14:03;;;;;;;6.17;2.77;;;;;;;-2.47;100.00;101154.23;1681263;85;22348;-73
2021/03/02 04:16:32;;;;;;;9.27;4.07;;;;;;;-2.47;100.00;101158.20;1727908;83;21583;-73
2021/03/02 04:19:00;;;;;;;2.90;2.50;;;;;;;-2.45;100.00;101152.39;1728223;83;21065;-72
2021/03/02 04:21:29;;;;;;;5.80;3.30;;;;;;;-2.42;100.00;101147.83;1753739;81;21013;-72
2021/03/02 04:23:58;;;;;;;6.73;3.23;;;;;;;-2.39;100.00;101156.09;1756880;81;21179;-73
2021/03/02 04:26:26;;;;;;;4.23;2.53;;;;;;;-2.39;100.00;101149.04;1756738;81;21789;-73
2021/03/02 04:28:54;;;;;;;11.60;5.27;;;;;;;-2.39;100.00;101155.66;1756882;81;21096;-73
2021/03/02 04:31:21;;;;;;;9.07;5.20;;;;;;;-2.36;100.00;101154.66;1756850;81;21037;-72
2021/03/02 04:33:49;;;;;;;11.77;5.97;;;;;;;-2.34;100.00;101155.45;1756726;81;21584;-73
2021/03/02 04:36:18;;;;;;;9.90;5.97;;;;;;;-2.33;100.00;101143.95;1756773;81;21020;-73
2021/03/02 04:38:45;;;;;;;6.70;3.50;;;;;;;-2.32;100.00;101154.48;1756723;81;21801;-73
2021/03/02 04:41:13;;;;;;;9.37;5.70;;;;;;;-2.32;100.00;101147.87;1756754;81;21013;-73
2021/03/02 04:43:41;;;;;;;13.60;5.90;;;;;;;-2.32;100.00;101154.93;1777412;80;21041;-73
2021/03/02 04:46:09;;;;;;;6.73;4.77;;;;;;;-2.32;100.00;101147.87;1787884;80;20954;-73
2021/03/02 04:48:36;;;;;;;9.23;4.37;;;;;;;-2.32;100.00;101141.24;1771639;79;21180;-72
2021/03/02 04:51:05;;;;;;;4.07;2.93;;;;;;;-2.32;100.00;101143.01;1756817;81;21380;-73
2021/03/02 04:53:33;;;;;;;8.87;4.90;;;;;;;-2.32;100.00;101139.92;1756677;81;21005;-73
2021/03/02 04:56:01;;;;;;;7.33;4.27;;;;;;;-2.32;100.00;101145.66;1756894;81;21020;-73
2021/03/02 04:58:31;;;;;;;5.83;3.33;;;;;;;-2.31;100.00;101132.83;1757203;81;21033;-75
2021/03/02 05:00:58;;;;;;;8.83;4.37;;;;;;;-2.29;100.00;101127.00;1757186;81;21760;-76
2021/03/02 05:03:27;;;;;;;6.57;3.43;;;;;;;-2.25;100.00;101123.28;1757121;81;21820;-74
2021/03/02 05:05:55;;;;;;;5.10;3.37;;;;;;;-2.20;100.00;101131.91;1756948;81;21025;-74
2021/03/02 05:08:22;;;;;;;5.50;3.30;;;;;;;-2.13;100.00;101126.77;1757281;81;21001;-74
2021/03/02 05:10:50;;;;;;;3.33;2.67;;;;;;;-2.05;100.00;101125.14;1757424;81;21021;-74
2021/03/02 05:13:18;;;;;;;11.73;4.20;;;;;;;-1.89;100.00;101123.15;1757510;81;20961;-74
2021/03/02 05:15:46;;;;;;;6.13;4.03;;;;;;;-1.68;100.00;101119.61;1754510;81;21590;-74
2021/03/02 05:18:14;;;;;;;5.47;3.53;;;;;;;-1.49;100.00;101119.64;1728688;81;20987;-74
2021/03/02 05:20:43;;;;;;;6.70;3.20;;;;;;;-1.38;100.00;101126.69;1728897;83;21019;-73
2021/03/02 05:23:12;;;;;;;4.53;3.00;;;;;;;-1.29;100.00;101125.86;1758895;81;21024;-74
2021/03/02 05:25:40;;;;;;;5.33;3.60;;;;;;;-1.27;100.00;101120.05;1747053;82;20985;-74
2021/03/02 05:28:08;;;;;;;7.37;4.23;;;;;;;-1.27;100.00;101120.89;1736863;82;21369;-74
2021/03/02 05:30:35;;;;;;;8.47;4.20;;;;;;;-1.24;100.00;101111.48;1736091;82;21408;-74
2021/03/02 05:33:04;;;;;;;4.93;3.30;;;;;;;-1.21;100.00;101121.08;1736128;82;20957;-73
2021/03/02 05:35:32;;;;;;;5.40;2.87;;;;;;;-1.17;100.00;101116.91;1736325;82;21063;-74
2021/03/02 05:38:00;;;;;;;4.23;2.63;;;;;;;-1.12;100.00;101114.02;1736126;82;21565;-75
2021/03/02 05:40:28;;;;;;;8.60;3.90;;;;;;;-1.08;100.00;101099.70;1736435;81;22549;-75
2021/03/02 05:42:57;;;;;;;6.57;3.70;;;;;;;-1.06;100.00;101100.48;1746823;81;21428;-74
2021/03/02 05:45:25;;;;;;;4.83;3.63;;;;;;;-1.00;100.00;101100.66;1766100;81;20945;-75
2021/03/02 05:47:53;;;;;;;5.97;3.67;;;;;;;-0.93;100.00;101098.59;1759669;81;21474;-74
2021/03/02 05:50:21;;;;;;;7.07;3.50;;;;;;;-0.87;100.00;101092.98;1735729;82;20989;-75
2021/03/02 05:52:49;;;;;;;6.90;4.00;;;;;;;-0.84;100.00;101092.36;1743945;81;21450;-74
2021/03/02 05:55:17;;;;;;;14.30;7.03;;;;;;;-0.80;100.00;101080.69;1751215;82;20951;-74
2021/03/02 05:57:44;;;;;;;6.50;4.03;;;;;;;-0.77;100.00;101080.52;1751567;82;21568;-74
2021/03/02 06:00:13;;;;;;;5.10;3.53;;;;;;;-0.74;100.00;101082.62;1751457;82;20991;-74
2021/03/02 06:02:42;;;;;;;6.90;4.10;;;;;;;-0.70;100.00;101077.59;1751664;82;21046;-73
2021/03/02 06:05:11;;;;;;;6.40;3.80;;;;;;;-0.64;100.00;101079.48;1751766;82;21259;-78
2021/03/02 06:07:39;;;;;;;6.17;3.33;;;;;;;-0.55;100.00;101074.16;1726740;82;21022;-73
2021/03/02 06:10:10;;;;;;;6.10;3.90;;;;;;;-0.49;100.00;101079.67;1751674;82;21071;-73
2021/03/02 06:12:53;;;;;;;22.63;10.93;;;;;;;-0.44;100.00;101079.84;1751405;80;20987;-74
2021/03/02 06:15:24;;;;;;;16.43;8.33;;;;;;;-0.35;100.00;101079.86;1751550;81;21011;-73
2021/03/02 06:18:18;;;;;;;6.87;4.47;;;;;;;-0.23;100.00;101077.04;1751909;82;21949;-74
2021/03/02 06:20:47;;;;;;;11.17;5.77;;;;;;;-0.15;100.00;101068.22;1751810;82;20936;-76
2021/03/02 06:23:30;;;;;;;10.30;5.53;;;;;;;-0.02;100.00;101065.35;1751698;82;21092;-78
2021/03/02 06:26:12;;;;;;;7.17;3.90;;;;;;;0.09;100.00;101059.48;1720962;83;21017;-76
2021/03/02 06:28:45;;;;;;;5.25;3.52;;;;;;;0.19;100.00;101055.86;1721264;83;21593;-78
2021/03/02 06:31:45;;;;;;;3.37;3.08;;;;;;;0.31;100.00;101059.69;1728597;81;21800;-77
2021/03/02 06:37:05;;;;;;;9.63;4.90;;;;;;;0.62;100.00;101041.64;1853306;76;26225;-77
2021/03/02 06:39:41;;;;;;;8.53;4.57;;;;;;;0.70;100.00;101041.21;1768759;79;21025;-77
2021/03/02 06:42:22;;;;;;;7.77;4.00;;;;;;;0.79;100.00;101047.36;1808523;77;21815;-76
2021/03/02 06:44:53;;;;;;;5.73;4.33;;;;;;;0.88;100.00;101040.19;1856325;77;21602;-77
2021/03/02 06:47:35;;;;;;;7.00;4.10;;;;;;;0.97;100.00;101045.97;1769907;81;21005;-76
2021/03/02 06:50:07;;;;;;;6.17;4.20;;;;;;;1.08;100.00;101034.23;1769997;81;21036;-78
2021/03/02 06:52:37;;;;;;;5.42;3.85;;;;;;;1.17;100.00;101030.20;1769966;81;20938;-76
2021/03/02 06:55:22;;;;;;;8.80;4.70;;;;;;;1.27;100.00;101026.07;1770271;81;21366;-78
2021/03/02 06:58:20;;;;;;;10.20;5.00;;;;;;;1.39;100.00;101024.52;1846341;76;27162;-74
2021/03/02 07:00:50;;;;;;;7.77;4.70;;;;;;;1.45;100.00;101021.48;1759529;79;20968;-75
2021/03/02 07:03:30;;;;;;;11.40;5.30;;;;;;;1.54;100.00;101014.77;1757690;80;21192;-74
2021/03/02 07:06:04;;;;;;;12.10;5.33;;;;;;;1.55;100.00;101013.83;1746792;80;21521;-76
2021/03/02 07:08:32;;;;;;;6.40;3.63;;;;;;;1.61;100.00;101010.80;1754582;80;21107;-78
2021/03/02 07:11:03;;;;;;;7.67;4.83;;;;;;;1.69;100.00;101017.88;1753288;80;21161;-77
2021/03/02 07:13:32;;;;;;;8.67;3.90;;;;;;;1.77;100.00;101003.63;1735537;80;21632;-75
2021/03/02 07:16:01;;;;;;;11.93;5.03;;;;;;;1.81;100.00;101004.31;1749133;80;21790;-79
2021/03/02 07:18:31;;;;;;;9.20;4.90;;;;;;;1.79;100.00;101004.39;1751747;81;21059;-73
2021/03/02 07:21:03;;;;;;;8.87;4.67;;;;;;;1.77;100.00;100995.64;1743462;81;21111;-74
2021/03/02 07:23:33;;;;;;;6.07;3.33;;;;;;;1.74;100.00;100997.62;1741421;81;21138;-74
2021/03/02 07:26:02;;;;;;;6.73;4.00;;;;;;;1.70;100.00;100994.28;1754938;81;21007;-75
2021/03/02 07:28:35;;;;;;;9.87;4.30;;;;;;;1.61;100.00;100994.34;1755263;80;22372;-76
2021/03/02 07:31:04;;;;;;;8.10;4.60;;;;;;;1.60;100.00;100989.10;1727330;81;21111;-75
2021/03/02 07:33:32;;;;;;;11.97;4.27;;;;;;;1.55;100.00;100990.69;1742873;81;20996;-78
2021/03/02 07:36:00;;;;;;;10.67;5.17;;;;;;;1.50;100.00;100990.95;1755143;80;21039;-78
2021/03/02 07:38:29;;;;;;;10.57;4.50;;;;;;;1.45;100.00;100996.17;1715729;82;20999;-75
2021/03/02 07:40:57;;;;;;;8.70;4.53;;;;;;;1.41;100.00;101002.63;1737270;82;22663;-75
2021/03/02 07:43:38;;;;;;;6.07;3.57;;;;;;;1.36;100.00;101000.70;1759425;79;21000;-76
2021/03/02 07:46:44;;;;;;;6.63;3.70;;;;;;;1.28;100.00;100995.34;1749074;81;21595;-73
2021/03/02 07:49:29;;;;;;;7.90;4.03;;;;;;;1.31;100.00;100999.17;1669605;84;21043;-78
2021/03/02 07:52:09;;;;;;;7.83;4.23;;;;;;;1.29;100.00;100982.42;1704008;82;21189;-78
2021/03/02 07:54:38;;;;;;;6.97;4.00;;;;;;;1.31;100.00;100989.84;1686339;82;21292;-78
2021/03/02 07:57:21;;;;;;;5.27;3.37;;;;;;;1.38;100.00;100982.81;1666590;84;21223;-74
2021/03/02 08:00:18;;;;;;;6.87;3.50;;;;;;;1.47;100.00;100987.61;1668086;83;21182;-74
2021/03/02 08:03:23;;;;;;;11.43;5.63;;;;;;;1.57;100.00;100979.46;1677372;85;21194;-73
2021/03/02 08:05:54;;;;;;;14.07;5.90;;;;;;;1.55;100.00;100983.18;1657298;85;21194;-77
2021/03/02 08:08:30;;;;;;;12.37;4.93;;;;;;;1.56;100.00;100984.42;1667318;85;21424;-74
2021/03/02 08:11:02;;;;;;;10.03;5.37;;;;;;;1.59;100.00;100974.89;1684932;85;21068;-74
2021/03/02 08:13:40;;;;;;;16.77;6.40;;;;;;;1.62;100.00;100977.87;1676039;85;21108;-76
2021/03/02 08:16:13;;;;;;;16.27;5.80;;;;;;;1.60;100.00;100969.95;1672976;85;20977;-75
2021/03/02 08:18:48;;;;;;;12.80;5.10;;;;;;;1.67;100.00;100965.13;1841994;76;26814;-75
2021/03/02 08:21:22;;;;;;;13.10;5.37;;;;;;;1.68;100.00;100968.16;1723971;82;20985;-76
2021/03/02 08:23:57;;;;;;;12.63;5.70;;;;;;;1.75;100.00;100960.17;1751355;81;21631;-76
2021/03/02 08:26:34;;;;;;;15.30;6.40;;;;;;;1.79;100.00;100956.40;1765536;81;20949;-78
2021/03/02 08:29:20;;;;;;;16.67;7.13;;;;;;;1.83;100.00;100949.92;1734860;81;21073;-76
2021/03/02 08:31:51;;;;;;;17.60;6.57;;;;;;;1.89;100.00;100955.34;1708766;81;21013;-75
2021/03/02 08:34:20;;;;;;;15.37;6.83;;;;;;;2.00;100.00;100963.58;1719404;82;21001;-77
2021/03/02 08:36:52;;;;;;;14.70;6.20;;;;;;;2.15;100.00;100953.77;1771084;81;21670;-77
2021/03/02 08:39:20;;;;;;;16.67;7.67;;;;;;;2.16;100.00;100944.82;1765072;81;21621;-77
2021/03/02 08:41:49;;;;;;;14.43;6.17;;;;;;;2.11;100.00;100942.91;1765399;81;21026;-78
2021/03/02 08:44:22;;;;;;;15.87;5.47;;;;;;;2.13;100.00;100933.48;1758708;81;20985;-79
2021/03/02 08:46:54;;;;;;;7.47;4.07;;;;;;;2.14;100.00;100932.51;1659098;86;21317;-79
2021/03/02 08:49:30;;;;;;;12.43;5.10;;;;;;;2.14;100.00;100917.83;1886601;75;26778;-79
2021/03/02 08:52:01;;;;;;;10.90;4.53;;;;;;;2.09;100.00;100926.99;1867623;76;20905;-79
2021/03/02 08:54:29;;;;;;;8.77;4.07;;;;;;;2.17;100.00;100922.98;1866041;76;22245;-76
2021/03/02 08:57:04;;;;;;;9.27;4.23;;;;;;;2.17;100.00;100930.99;1861972;76;21054;-79
2021/03/02 08:59:33;;;;;;;10.77;5.00;;;;;;;2.14;100.00;100913.83;1839409;77;21041;-77
2021/03/02 09:02:01;;;;;;;11.20;5.03;;;;;;;2.11;100.00;100918.89;1827505;78;20954;-77
2021/03/02 09:04:33;;;;;;;13.93;4.70;;;;;;;2.10;100.00;100914.50;1860977;77;20943;-82
2021/03/02 09:07:01;;;;;;;10.43;4.93;;;;;;;2.09;100.00;100919.47;1862458;76;21200;-76
2021/03/02 09:09:31;;;;;;;7.67;4.40;;;;;;;2.09;100.00;100908.80;1858778;76;21182;-76
2021/03/02 09:11:59;;;;;;;8.63;5.07;;;;;;;2.05;100.00;100921.47;1845400;76;20965;-77
2021/03/02 09:14:37;;;;;;;11.00;5.43;;;;;;;2.04;100.00;100911.73;1798467;79;20959;-80
2021/03/02 09:17:15;;;;;;;12.63;4.63;;;;;;;2.04;100.00;100902.89;1831060;77;26746;-83
2021/03/02 09:19:43;;;;;;;8.57;4.40;;;;;;;2.03;100.00;100909.16;1824324;77;21453;-75
2021/03/02 09:22:17;;;;;;;8.17;4.33;;;;;;;2.01;100.00;100911.08;1824841;77;21738;-75
2021/03/02 09:24:51;;;;;;;7.53;3.73;;;;;;;1.98;100.00;100898.77;1822965;78;21055;-77
2021/03/02 09:27:36;;;;;;;8.63;4.67;;;;;;;1.89;100.00;100894.00;1760205;80;20997;-81
2021/03/02 09:30:13;;;;;;;5.53;3.33;;;;;;;1.80;100.00;100881.24;1845870;76;26712;-79
2021/03/02 09:32:41;;;;;;;12.03;5.37;;;;;;;1.77;100.00;100885.42;1794935;79;21017;-78
2021/03/02 09:35:11;;;;;;;9.13;4.17;;;;;;;1.80;100.00;100891.42;1788460;78;21876;-78
2021/03/02 09:37:39;;;;;;;7.87;4.00;;;;;;;1.79;100.00;100887.52;1791669;79;21004;-74
2021/03/02 09:40:13;;;;;;;9.50;4.23;;;;;;;1.78;100.00;100885.81;1716125;82;21606;-74
2021/03/02 09:42:42;;;;;;;5.87;3.50;;;;;;;1.79;100.00;100874.18;1749590;82;21453;-75
2021/03/02 09:45:18;;;;;;;6.43;3.97;;;;;;;1.78;100.00;100872.48;1766468;80;21023;-76
2021/03/02 09:47:52;;;;;;;6.40;4.17;;;;;;;1.78;100.00;100878.66;1770110;79;21441;-75
2021/03/02 09:50:21;;;;;;;7.62;3.75;;;;;;;1.83;100.00;100870.39;1756769;81;21560;-77
2021/03/02 09:52:51;;;;;;;9.47;4.30;;;;;;;1.89;100.00;100868.22;1759741;81;21005;-74
2021/03/02 09:55:32;;;;;;;9.93;4.73;;;;;;;1.93;100.00;100859.55;1708201;81;21593;-76
2021/03/02 09:58:19;;;;;;;5.50;3.00;;;;;;;1.96;100.00;100857.15;1714009;81;20981;-75
2021/03/02 10:00:52;;;;;;;4.87;3.37;;;;;;;1.99;100.00;100860.48;1768629;81;22075;-78
2021/03/02 10:03:26;;;;;;;;;;;;;;;2.01;100.00;100853.23;1763747;81;20976;-74
2021/03/02 10:06:03;;;;;;;5.87;3.30;;;;;;;2.02;100.00;100847.41;1767912;81;20136;-83
2021/03/02 10:08:38;;;;;;;7.00;3.50;;;;;;;2.01;100.00;100849.72;1750029;81;20997;-77
2021/03/02 10:11:18;;;;;;;7.33;4.03;;;;;;;2.01;100.00;100836.38;1732192;82;21093;-77
2021/03/02 10:14:02;;;;;;;8.30;4.33;;;;;;;2.08;100.00;100847.89;1762744;81;22218;-76
2021/03/02 10:16:37;;;;;;;9.10;4.60;;;;;;;2.13;100.00;100833.42;1751910;81;21048;-75
2021/03/02 10:19:22;;;;;;;8.35;4.10;;;;;;;2.18;100.00;100827.29;1786101;77;28473;-73
2021/03/02 10:21:56;;;;;;;6.17;3.37;;;;;;;2.18;100.00;100824.63;1793179;78;20932;-75
2021/03/02 10:24:29;;;;;;;8.17;3.77;;;;;;;2.18;100.00;100822.83;1785896;79;21362;-75
2021/03/02 10:26:59;;;;;;;7.60;3.05;;;;;;;2.20;100.00;100816.91;1814364;78;25757;-75
2021/03/02 10:29:29;;;;;;;6.40;3.30;;;;;;;2.24;100.00;100813.09;1807291;78;21095;-76
2021/03/02 10:31:59;;;;;;;7.37;3.90;;;;;;;2.26;100.00;100812.50;1816896;77;20974;-75
2021/03/02 10:34:38;;;;;;;7.03;3.87;;;;;;;2.28;100.00;100808.41;1760938;79;20922;-74
2021/03/02 10:37:09;;;;;;;7.03;3.47;;;;;;;2.28;100.00;100802.61;1736131;82;21568;-77
2021/03/02 10:39:37;;;;;;;8.17;3.90;;;;;;;2.28;100.00;100795.06;1739640;81;20982;-77
2021/03/02 10:42:09;;;;;;;5.63;3.10;;;;;;;2.24;100.00;100793.55;1737115;81;21013;-75
2021/03/02 10:44:42;;;;;;;5.80;3.70;;;;;;;2.21;100.00;100791.95;1738375;80;21705;-73
2021/03/02 10:47:11;;;;;;;9.97;4.83;;;;;;;2.23;100.00;100786.04;1735209;82;21200;-75
2021/03/02 10:49:39;;;;;;;6.00;3.87;;;;;;;2.32;100.00;100792.59;1735960;82;22739;-76
2021/03/02 10:52:07;;;;;;;8.87;3.93;;;;;;;2.34;100.00;100789.80;1732997;82;21043;-76
2021/03/02 10:54:36;;;;;;;6.73;3.40;;;;;;;2.34;100.00;100777.33;1733274;82;21686;-76
2021/03/02 10:57:05;;;;;;;5.93;3.23;;;;;;;2.40;100.00;100780.08;1742301;82;21304;-77
2021/03/02 10:59:33;;;;;;;4.53;3.20;;;;;;;2.42;100.00;100772.33;1743552;80;21533;-75
2021/03/02 11:02:01;;;;;;;6.23;3.60;;;;;;;2.43;100.00;100755.37;1771084;80;21364;-75
2021/03/02 11:04:29;;;;;;;9.57;3.60;;;;;;;2.39;100.00;100761.00;1723002;82;21639;-76
2021/03/02 11:06:57;;;;;;;4.00;3.20;;;;;;;2.34;100.00;100751.09;1737927;82;21473;-76
2021/03/02 11:09:25;;;;;;;5.13;3.20;;;;;;;2.32;100.00;100732.55;1718092;82;20979;-74
2021/03/02 11:11:54;;;;;;;5.43;3.67;;;;;;;2.35;100.00;100722.98;1728200;82;20979;-75
2021/03/02 11:14:22;;;;;;;5.30;2.97;;;;;;;2.39;100.00;100715.63;1744967;81;21204;-75
2021/03/02 11:16:50;;;;;;;3.93;2.50;;;;;;;2.42;100.00;100711.42;1743204;82;21023;-74
2021/03/02 11:19:18;;;;;;;7.47;3.37;;;;;;;2.41;100.00;100712.40;1731258;81;21724;-76
2021/03/02 11:21:46;;;;;;;6.50;3.43;;;;;;;2.42;100.00;100705.59;1748312;81;20963;-74
2021/03/02 11:24:14;;;;;;;4.37;3.10;;;;;;;2.46;100.00;100698.23;1738422;82;21019;-74
2021/03/02 11:26:43;;;;;;;4.97;3.40;;;;;;;2.42;100.00;100700.26;1740126;82;21206;-77
2021/03/02 11:29:11;;;;;;;4.77;3.37;;;;;;;2.39;100.00;100700.48;1740357;82;21020;-75
2021/03/02 11:31:39;;;;;;;8.40;4.43;;;;;;;2.38;100.00;100693.91;1733340;82;21122;-74
2021/03/02 11:34:08;;;;;;;7.00;3.50;;;;;;;2.36;100.00;100679.33;1745863;81;21576;-78
2021/03/02 11:36:37;;;;;;;5.57;3.10;;;;;;;2.38;100.00;100680.08;1753787;81;20972;-76
2021/03/02 11:39:06;;;;;;;10.43;4.07;;;;;;;2.40;100.00;100680.83;1743412;81;21202;-78
2021/03/02 11:41:34;;;;;;;4.93;2.80;;;;;;;2.40;100.00;100679.49;1748024;81;21029;-75